• Join FlightAware (Why Join?)
  • Login
  • US Flag 
09:43AM EDT


 

Airport Tracker/Info


-or-


 

Live Flight TrackerFlight Track Log ✈ TAM3130 ✈ 01-Jul-2013 ✈ SBSP / CGH - SBVT / VIX

Flight Track Log - Related Links

Times and Time Zones

All times are in EDT time to prevent confusion due to time zone crossing. See the TAM3130 flight status page for this flight to view local times or setup timezone preferences in your user account.

Time Position Orientation Groundspeed Altitude Reporting Facility
EDT Latitude Longitude Course Direction KTS MPH feet Rate Location/Type
07:47AM -23.1091 -45.6245 62° Northeast  Level Estimated
07:48AM -23.0570 -45.5219 61° Northeast  Level Estimated
07:49AM -23.0048 -45.4193 61° Northeast  Level Estimated
07:50AM -22.9525 -45.3168 61° Northeast  Level Estimated
07:51AM -22.9002 -45.2144 61° Northeast  Level Estimated
07:52AM -22.8478 -45.1121 61° Northeast  Level Estimated
07:53AM -22.7953 -45.0099 61° Northeast  Level Estimated
07:54AM -22.7428 -44.9077 61° Northeast  Level Estimated
07:55AM -22.6902 -44.8056 61° Northeast  Level Estimated
07:56AM -22.6376 -44.7036 61° Northeast  Level Estimated
07:57AM -22.5849 -44.6017 61° Northeast  Level Estimated
07:58AM -22.5321 -44.4998 61° Northeast  Level Estimated
07:59AM -22.4792 -44.3980 61° Northeast  Level Estimated
08:00AM -22.4263 -44.2963 61° Northeast  Level Estimated
08:01AM -22.3734 -44.1947 61° Northeast  Level Estimated
08:02AM -22.3203 -44.0932 61° Northeast  Level Estimated
08:03AM -22.2672 -43.9917 61° Northeast  Level Estimated
08:04AM -22.2141 -43.8903 60° Northeast  Level Estimated
08:05AM -22.1608 -43.7890 60° Northeast  Level Estimated
08:06AM -22.1075 -43.6877 60° Northeast  Level Estimated
08:07AM -22.0542 -43.5866 60° Northeast  Level Estimated
08:08AM -22.0008 -43.4855 60° Northeast  Level Estimated
08:09AM -21.9473 -43.3845 60° Northeast  Level Estimated
08:10AM -21.8938 -43.2836 60° Northeast  Level Estimated
08:11AM -21.8402 -43.1827 60° Northeast  Level Estimated
08:12AM -21.7865 -43.0819 60° Northeast  Level Estimated
08:13AM -21.7328 -42.9812 60° Northeast  Level Estimated
08:14AM -21.6790 -42.8806 60° Northeast  Level Estimated
08:15AM -21.6252 -42.7800 60° Northeast  Level Estimated
08:16AM -21.5713 -42.6795 60° Northeast  Level Estimated
08:17AM -21.5173 -42.5791 60° Northeast  Level Estimated
08:18AM -21.4633 -42.4788 60° Northeast  Level Estimated
08:19AM -21.4092 -42.3785 60° Northeast  Level Estimated
08:20AM -21.3551 -42.2784 60° Northeast  Level Estimated
08:21AM -21.3009 -42.1782 60° Northeast  Level Estimated
08:22AM -21.2466 -42.0782 60° Northeast  Level Estimated
08:23AM -21.1923 -41.9783 60° Northeast  Level Estimated
08:24AM -21.1379 -41.8784 60° Northeast  Level Estimated
08:25AM -21.0835 -41.7786 60° Northeast  Level Estimated
08:26AM -21.0290 -41.6788 60° Northeast  Level Estimated
08:27AM -20.9745 -41.5792 60° Northeast  Level Estimated
08:28AM -20.9198 -41.4796 60° Northeast  Level Estimated
08:29AM -20.8652 -41.3800 60° Northeast  Level Estimated
08:30AM -20.8105 -41.2806 60° Northeast  Level Estimated
08:31AM -20.7557 -41.1812 59° Northeast  Level Estimated
08:32AM -20.7008 -41.0819 59° Northeast  Level Estimated
08:33AM -20.6459 -40.9827 59° Northeast  Level Estimated
08:34AM -20.5910 -40.8835 59° Northeast  Level Estimated
08:35AM -20.5360 -40.7844 59° Northeast  Level Estimated
08:36AM -20.4809 -40.6854 59° Northeast  Level Estimated
08:37AM -20.4258 -40.5864 59° Northeast  Level Estimated
08:38AM -20.3706 -40.4876 59° Northeast  Level Estimated
08:39AM -20.3154 -40.3888 59° Northeast  Level Estimated
08:40AM -20.2601 -40.2900 59° Northeast  Level Estimated
08:41AM -20.2581 -40.2864 59° Northeast  Level Estimated
08:42AM -20.2581 -40.2864 13° North  Level Estimated
08:43AM -20.2581 -40.2864 13° North  Level Estimated
08:44AM -20.2581 -40.2864 13° North  Level Estimated
08:45AM -20.2581 -40.2864 13° North  Level Estimated
08:46AM -20.2581 -40.2864 13° North  Level Estimated
08:47AM -20.2581 -40.2864 13° North  Level Estimated
08:48AM -20.2581 -40.2864 13° North  Level Estimated
08:49AM -20.2581 -40.2864 13° North  Level Estimated
08:50AM -20.2581 -40.2864 13° North  Level Estimated
08:51AM -20.2581 -40.2864 13° North  Level Estimated
08:52AM -20.2581 -40.2864 13° North  Level Estimated
08:53AM -20.2581 -40.2864 13° North  Level Estimated
08:54AM -20.2581 -40.2864 13° North  Level Estimated